• Join FlightAware (Why Join?)
  • Login
  • US Flag 
12:25AM EDT


 

Airport Tracker/Info


-or-


 

Live Flight TrackerFlight Track Log ✈ ASQ4096 ✈ 19-Mar-2012 ✈ KIAH - KELP

Flight Track Log - Related Links

Times and Time Zones

All times are in EDT time to prevent confusion due to time zone crossing. See the ASQ4096 flight status page for this flight to view local times or setup timezone preferences in your user account.

Time Position Orientation Groundspeed Altitude Reporting Facility
EDT Latitude Longitude Course Direction KTS MPH feet Rate Location/Type
06:56PM 29.9581 -95.3481 208° Southwest 149 171 800  Level Houston Center
06:57PM 29.9325 -95.3639 236° Southwest 197 227 2,100 1,920 Climbing Houston Center
06:58PM 29.8997 -95.4203 238° Southwest 228 262 4,000 1,860 Climbing Houston Center
06:59PM 29.8644 -95.4861 243° Southwest 232 267 5,800 2,160 Climbing Houston Center
07:01PM 29.8244 -95.5756 282° West 265 305 9,500 2,460 Climbing Houston Center
07:02PM 29.8406 -95.6669 281° West 254 292 11,900 1,440 Climbing Houston Center
07:03PM 29.8583 -95.7683 281° West 280 322 12,400 600 Climbing Houston Center
07:04PM 29.8778 -95.8839 283° West 330 380 13,200 1,200 Climbing Houston Center
07:05PM 29.9011 -96.0047 282° West 369 425 14,900 1,800 Climbing Houston Center
07:06PM 29.9222 -96.1206 275° West 376 433 16,900 1,680 Climbing Houston Center
07:07PM 29.9311 -96.2336 269° West 370 426 18,300 1,380 Climbing Houston Center
07:08PM 29.9292 -96.3533 270° West 370 426 19,700 1,500 Climbing Houston Center
07:09PM 29.9292 -96.4706 269° West 370 426 21,300 1,680 Climbing Houston Center
07:10PM 29.9269 -96.5881 269° West 365 420 23,100 1,920 Climbing Houston Center
07:11PM 29.9250 -96.6981 268° West 360 414 25,200 2,040 Climbing Houston Center
07:12PM 29.9211 -96.8033 270° West 348 400 27,200 1,800 Climbing Houston Center
07:13PM 29.9217 -96.9014 269° West 333 383 28,900 1,500 Climbing Houston Center
07:14PM 29.9197 -97.0044 269° West 326 375 30,200 1,260 Climbing Houston Center
07:15PM 29.9178 -97.1047 269° West 326 375 31,500 900 Climbing Houston Center
07:16PM 29.9156 -97.2100 267° West 326 375 32,000 240 Climbing Houston Center
07:17PM 29.9108 -97.3247 268° West 345 397 32,000  Level Houston Center
07:18PM 29.9081 -97.4419 268° West 380 437 32,000  Level Houston Center
07:19PM 29.9039 -97.5831 269° West 396 456 32,000  Level Houston Center
07:20PM 29.9028 -97.7025 267° West 417 480 32,000  Level Houston Center
07:21PM 29.8964 -97.8436 249° West 417 480 32,000  Level Houston Center
07:22PM 29.8628 -97.9444 244° Southwest 392 451 32,000 360 Level Houston Center
07:23PM 29.8133 -98.0633 244° Southwest 381 438 32,800 1,320 Climbing Houston Center
07:24PM 29.7733 -98.1589 244° Southwest 374 430 34,700 1,560 Climbing Houston Center
07:25PM 29.7308 -98.2614 269° West 345 397 36,000 600 Climbing Houston Center
07:26PM 29.7300 -98.3617 266° West 333 383 36,000  Level Houston Center
07:27PM 29.7225 -98.4736 220° Southwest 351 404 36,000  Level Houston Center
07:28PM 29.6369 -98.5561 191° South 345 397 36,000  Level Houston Center
07:29PM 29.5314 -98.5803 202° Southwest 351 404 36,000  Level Houston Center
07:30PM 29.4225 -98.6303 230° Southwest 382 440 36,000  Level Houston Center
07:31PM 29.3642 -98.7097 266° West 368 423 36,000  Level Houston Center
07:32PM 29.3556 -98.8353 272° West 345 397 36,000  Level Houston Center
07:33PM 29.3581 -98.9450 271° West 373 429 36,000  Level Houston Center
07:34PM 29.3594 -99.0711 271° West 373 429 36,000  Level Houston Center
07:35PM 29.3603 -99.1689 271° West 357 411 36,000  Level Houston Center
07:36PM 29.3617 -99.2953 268° West 357 411 36,000 -60 Level Houston Center
07:37PM 29.3578 -99.4019 272° West 364 419 35,900 -60 Descending Houston Center
07:38PM 29.3614 -99.5214 270° West 369 425 35,900  Level Houston Center
07:39PM 29.3606 -99.6425 270° West 379 436 35,900  Level Houston Center
07:40PM 29.3614 -99.7664 270° West 389 448 35,900  Level Houston Center
07:41PM 29.3606 -99.8878 272° West 389 448 36,000  Climbing Houston Center
07:42PM 29.3633 -100.0094 269° West 389 448 35,900 -60 Descending Houston Center
07:43PM 29.3622 -100.1283 270° West 382 440 35,900  Level Houston Center
07:44PM 29.3617 -100.2378 269° West 370 426 36,000  Climbing Houston Center
07:45PM 29.3606 -100.3542 269° West 363 418 36,000  Level Houston Center
07:46PM 29.3594 -100.4683 271° West 370 426 36,000  Level Houston Center
07:47PM 29.3614 -100.5969 268° West 370 426 36,000 -60 Level Houston Center
07:48PM 29.3583 -100.7086 284° West 365 420 35,900  Descending Houston Center
07:49PM 29.3836 -100.8272 299° West 370 426 36,000  Climbing Houston Center
07:50PM 29.4367 -100.9367 299° West 375 432 36,000  Level Houston Center
07:51PM 29.4914 -101.0511 299° West 395 455 36,000  Level Houston Center
07:52PM 29.5461 -101.1633 299° West 410 472 36,000  Level Houston Center
07:53PM 29.6006 -101.2781 298° West 410 472 36,000  Level Houston Center
07:54PM 29.6547 -101.3953 298° West 410 472 36,000  Level Houston Center
07:55PM 29.7086 -101.5125 299° West 415 478 36,000  Level Houston Center
07:56PM 29.7647 -101.6300 299° West 415 478 36,000 -60 Level Houston Center
07:57PM 29.8206 -101.7478 299° West 421 484 35,900  Descending Houston Center
07:58PM 29.8761 -101.8656 298° West 415 478 36,000  Climbing Houston Center
07:59PM 29.9711 -102.0731 298° West 425 489 36,000  Level Albuquerque Center
08:00PM 30.0239 -102.1872 299° West 424 488 36,000  Level Albuquerque Center
08:01PM 30.0789 -102.3039 298° West 419 482 36,000  Level Albuquerque Center
08:02PM 30.1339 -102.4256 298° West 419 482 36,000  Level Albuquerque Center
08:03PM 30.1889 -102.5472 298° West 424 488 36,000  Level Albuquerque Center
08:04PM 30.2436 -102.6667 298° West 424 488 36,000  Level Albuquerque Center
08:05PM 30.2981 -102.7836 297° West 424 488 36,000  Level Albuquerque Center
08:06PM 30.3481 -102.8964 297° West 419 482 36,000  Level Albuquerque Center
08:07PM 30.4003 -103.0139 299° West 419 482 36,000 -300 Level Albuquerque Center
08:08PM 30.4544 -103.1292 296° West 414 476 35,400 -780 Descending Albuquerque Center
08:09PM 30.5022 -103.2450 299° West 408 470 34,500 -720 Descending Albuquerque Center
08:10PM 30.5603 -103.3650 297° West 408 470 34,000 -300 Descending Albuquerque Center
08:11PM 30.6100 -103.4808 297° West 413 475 34,000  Level Albuquerque Center
08:12PM 30.6639 -103.6014 296° West 413 475 34,000  Level Albuquerque Center
08:13PM 30.7156 -103.7244 299° West 425 489 34,000  Level Albuquerque Center
08:14PM 30.7733 -103.8478 298° West 425 489 34,000  Level Albuquerque Center
08:15PM 30.8267 -103.9664 297° West 420 483 34,000  Level Albuquerque Center
08:16PM 30.8800 -104.0875 297° West 420 483 34,000  Level Albuquerque Center
08:17PM 30.9333 -104.2114 298° West 420 483 34,000  Level Albuquerque Center
08:18PM 30.9864 -104.3281 297° West 420 483 34,000 -60 Level Albuquerque Center
08:19PM 31.0394 -104.4472 297° West 420 483 33,900 -60 Descending Albuquerque Center
08:20PM 31.0922 -104.5689 296° West 420 483 33,900  Level Albuquerque Center
08:21PM 31.1431 -104.6883 296° West 420 483 34,000 -540 Climbing Albuquerque Center
08:22PM 31.1933 -104.8081 297° West 420 483 32,900 -1,860 Descending Albuquerque Center
08:23PM 31.2439 -104.9231 297° West 420 483 30,300 -2,880 Descending Albuquerque Center
08:24PM 31.2939 -105.0383 296° West 408 470 27,200 -2,940 Descending Albuquerque Center
08:25PM 31.3400 -105.1511 297° West 397 457 24,500 -2,640 Descending Albuquerque Center
08:26PM 31.3900 -105.2642 297° West 392 451 22,000 -2,640 Descending Albuquerque Center
08:27PM 31.4311 -105.3581 293° West 380 437 19,300 -2,880 Descending Albuquerque Center
08:28PM 31.4594 -105.4375 319° Northwest 359 413 17,200 -2,340 Descending Albuquerque Center
08:29PM 31.5294 -105.5092 322° Northwest 373 429 15,600 -1,560 Descending Albuquerque Center
08:30PM 31.6119 -105.5853 320° Northwest 380 437 14,200 -1,560 Descending Albuquerque Center
08:31PM 31.6858 -105.6594 294° West 349 402 12,500 -1,620 Descending Albuquerque Center
08:32PM 31.7183 -105.7464 289° West 288 331 11,000 -1,380 Descending Albuquerque Center
08:33PM 31.7444 -105.8339 285° West 246 283 9,700 -960 Descending Albuquerque Center
08:34PM 31.7622 -105.9117 280° West 247 284 9,000 -1,020 Descending Albuquerque Center
08:35PM 31.7736 -105.9894 273° West 239 275 7,700 -1,020 Descending Albuquerque Center
08:36PM 31.7764 -106.0628 276° West 228 262 7,000 -420 Descending Albuquerque Center
08:37PM 31.7833 -106.1383 279° West 220 253 6,900 -660 Descending Albuquerque Center
08:38PM 31.7925 -106.2064 273° West 210 242 5,600 -780 Descending Albuquerque Center
08:39PM 31.7950 -106.2675 274° West 172 198 5,400 -420 Descending Albuquerque Center
08:40PM 31.7975 -106.3139 275° West 142 163 4,800 -660 Descending Albuquerque Center
08:41PM 31.8000 -106.3506 275° West 133 153 4,200 -720 Descending Albuquerque Center